Time;durP1;ratioP1;P1;durP2;ratioP2;P2;SDS_P1;SDS_P2;PMS_P1;PMS_P2;Temp;Humidity;BMP_temperature;BMP_pressure;BME280_temperature;BME280_humidity;BME280_pressure;Samples;Min_cycle;Max_cycle;Signal;HPM_P1;HPM_P2
2023/05/21 00:01:42;;;;;;;17.07;12.47;;;;;;;18.93;62.36;99999.13;5047784;28;20410;-74
2023/05/21 00:04:08;;;;;;;15.90;13.03;;;;;;;18.93;62.15;100006.56;5047853;28;20400;-74
2023/05/21 00:06:36;;;;;;;18.63;13.50;;;;;;;18.94;62.22;100008.97;5045821;28;20385;-74
2023/05/21 00:09:04;;;;;;;19.10;13.32;;;;;;;18.90;62.41;99998.94;5044803;28;20395;-74
2023/05/21 00:11:30;;;;;;;16.38;13.00;;;;;;;18.89;62.32;100002.81;5027334;28;20391;-75
2023/05/21 00:13:56;;;;;;;16.58;12.70;;;;;;;18.90;62.41;100004.44;5040630;28;20795;-75
2023/05/21 00:16:21;;;;;;;23.47;13.57;;;;;;;18.91;62.54;100006.84;5047211;28;20389;-75
2023/05/21 00:18:53;;;;;;;17.15;13.02;;;;;;;18.88;62.62;100002.00;5037877;28;20416;-74
2023/05/21 00:21:21;;;;;;;17.90;13.57;;;;;;;18.90;62.50;100004.44;5036177;28;20451;-74
2023/05/21 00:23:50;;;;;;;17.85;14.00;;;;;;;18.85;62.59;99999.88;5051419;28;20713;-75
2023/05/21 00:26:15;;;;;;;18.77;13.30;;;;;;;18.85;62.55;99999.88;5051245;28;20877;-74
2023/05/21 00:28:41;;;;;;;15.23;12.03;;;;;;;18.87;62.64;99992.13;5046284;28;20401;-74
2023/05/21 00:31:06;;;;;;;19.23;13.20;;;;;;;18.84;62.72;99989.19;5040086;28;20413;-74
2023/05/21 00:33:31;;;;;;;17.43;13.47;;;;;;;18.79;62.85;99979.16;5051584;28;20393;-75
2023/05/21 00:35:56;;;;;;;17.37;13.27;;;;;;;18.76;63.19;99981.69;5051470;28;20791;-75
2023/05/21 00:38:22;;;;;;;19.93;13.33;;;;;;;18.76;63.20;99978.94;5047862;28;20423;-74
2023/05/21 00:40:48;;;;;;;18.23;13.55;;;;;;;18.77;63.17;99973.13;5040873;28;20467;-74
2023/05/21 00:43:14;;;;;;;14.68;12.30;;;;;;;18.76;63.09;99966.03;5051249;28;20461;-74
2023/05/21 00:45:43;;;;;;;17.63;13.27;;;;;;;18.79;63.10;99968.16;5037300;28;20393;-75
2023/05/21 00:48:08;;;;;;;16.93;13.37;;;;;;;18.78;63.07;99963.78;5061795;28;20466;-75
2023/05/21 00:50:38;;;;;;;20.52;13.50;;;;;;;18.78;62.99;99961.03;5046386;28;20595;-75
2023/05/21 00:53:16;;;;;;;16.98;13.00;;;;;;;18.77;62.89;99959.41;5049361;28;20446;-75
2023/05/21 00:55:45;;;;;;;16.75;12.50;;;;;;;18.74;63.19;99962.00;5050643;28;20390;-74
2023/05/21 00:58:11;;;;;;;16.63;13.23;;;;;;;18.64;63.57;99952.03;5034472;28;20417;-74
2023/05/21 01:00:36;;;;;;;18.70;14.13;;;;;;;18.65;63.61;99949.00;5045656;28;20416;-75
2023/05/21 01:03:03;;;;;;;17.15;13.48;;;;;;;18.65;63.42;99949.00;5040871;28;20503;-74
2023/05/21 01:05:29;;;;;;;18.63;13.60;;;;;;;18.70;63.60;99950.00;5045007;28;20496;-74
2023/05/21 01:07:56;;;;;;;19.70;14.05;;;;;;;18.68;63.69;99950.31;5043611;28;20403;-74
2023/05/21 01:10:23;;;;;;;15.90;13.55;;;;;;;18.69;63.44;99951.13;5027110;28;20397;-74
2023/05/21 01:12:50;;;;;;;17.27;13.60;;;;;;;18.69;63.38;99949.19;5050853;28;20394;-74
2023/05/21 01:15:15;;;;;;;17.40;13.53;;;;;;;18.65;63.65;99948.19;5044886;28;20416;-74
2023/05/21 01:17:41;;;;;;;17.00;13.27;;;;;;;18.63;63.95;99945.75;5047381;28;20754;-74
2023/05/21 01:20:10;;;;;;;18.50;13.43;;;;;;;18.60;63.92;99946.38;5046640;28;20744;-74
2023/05/21 01:22:40;;;;;;;17.73;13.63;;;;;;;18.62;63.94;99946.06;5049384;28;20555;-74
2023/05/21 01:25:06;;;;;;;18.85;13.82;;;;;;;18.57;64.21;99937.97;5048466;28;20405;-74
2023/05/21 01:27:31;;;;;;;17.87;13.70;;;;;;;18.60;64.07;99937.34;5047139;28;20383;-74
2023/05/21 01:29:56;;;;;;;15.80;12.70;;;;;;;18.60;64.10;99940.09;5047426;28;20428;-74
2023/05/21 01:32:32;;;;;;;19.30;13.20;;;;;;;18.60;64.41;99942.81;5050613;28;20386;-74
2023/05/21 01:35:06;;;;;;;18.85;13.63;;;;;;;18.58;64.48;99942.31;5047085;28;20536;-74
2023/05/21 01:37:43;;;;;;;17.52;12.80;;;;;;;18.57;64.64;99941.50;5035746;28;20879;-74
2023/05/21 01:40:19;;;;;;;17.23;14.00;;;;;;;18.54;64.77;99941.31;5050409;28;20389;-75
2023/05/21 01:42:46;;;;;;;15.80;12.90;;;;;;;18.50;64.87;99948.53;5050377;28;20405;-75
2023/05/21 01:45:14;;;;;;;18.45;13.60;;;;;;;18.49;65.05;99941.41;5030849;28;20417;-74
2023/05/21 01:47:43;;;;;;;18.75;13.52;;;;;;;18.46;65.17;99951.06;5049665;28;20744;-74
2023/05/21 01:50:10;;;;;;;16.67;13.50;;;;;;;18.44;65.20;99944.28;5049916;28;20413;-74
2023/05/21 01:52:35;;;;;;;17.85;13.98;;;;;;;18.43;65.36;99940.72;5041121;28;20414;-74
2023/05/21 01:55:00;;;;;;;17.40;13.00;;;;;;;18.41;65.23;99937.44;5022879;28;20399;-74
2023/05/21 01:57:26;;;;;;;17.33;13.17;;;;;;;18.40;65.30;99938.59;5047136;28;20452;-74
2023/05/21 01:59:52;;;;;;;21.67;13.38;;;;;;;18.39;65.44;99936.13;5049937;28;20398;-74
2023/05/21 02:02:18;;;;;;;19.15;13.93;;;;;;;18.38;65.59;99929.84;5049968;28;20409;-74
2023/05/21 02:04:44;;;;;;;18.40;13.97;;;;;;;18.37;65.63;99921.94;5028054;28;20412;-74
2023/05/21 02:07:13;;;;;;;19.95;13.50;;;;;;;18.36;65.71;99928.53;5048133;28;20785;-74
2023/05/21 02:09:38;;;;;;;18.25;13.60;;;;;;;18.30;65.66;99916.06;5049932;28;20455;-74
2023/05/21 02:12:04;;;;;;;19.13;13.90;;;;;;;18.30;65.79;99921.53;5039447;28;20449;-74
2023/05/21 02:14:29;;;;;;;18.40;13.83;;;;;;;18.29;65.92;99922.66;5036758;28;20449;-74
2023/05/21 02:16:55;;;;;;;18.37;13.97;;;;;;;18.28;65.95;99921.84;5044844;28;20855;-74
2023/05/21 02:19:20;;;;;;;24.05;14.05;;;;;;;18.28;66.11;99915.53;5049419;28;20492;-74
2023/05/21 02:21:46;;;;;;;22.10;14.07;;;;;;;18.26;66.15;99912.28;5049710;28;20477;-74
2023/05/21 02:24:11;;;;;;;23.93;14.10;;;;;;;18.25;66.12;99913.41;5040329;28;20809;-74
2023/05/21 02:26:36;;;;;;;20.67;13.83;;;;;;;18.25;66.15;99916.16;5030885;28;20511;-74
2023/05/21 02:29:02;;;;;;;20.33;15.07;;;;;;;18.23;66.26;99910.19;5033315;28;20416;-74
2023/05/21 02:31:28;;;;;;;20.20;15.00;;;;;;;18.20;66.42;99911.63;5049437;28;20393;-74
2023/05/21 02:33:53;;;;;;;22.33;14.68;;;;;;;18.19;66.55;99911.91;5044504;28;20518;-74
2023/05/21 02:36:19;;;;;;;19.40;14.53;;;;;;;18.19;66.60;99898.19;5045512;28;20387;-74
2023/05/21 02:38:44;;;;;;;19.67;14.55;;;;;;;18.17;66.71;99909.50;5030433;28;20520;-74
2023/05/21 02:41:12;;;;;;;21.20;14.23;;;;;;;18.14;66.75;99907.38;5048875;28;20401;-74
2023/05/21 02:43:38;;;;;;;19.05;13.77;;;;;;;18.13;66.79;99903.00;5046572;28;20431;-74
2023/05/21 02:46:05;;;;;;;20.43;15.10;;;;;;;18.08;66.88;99908.56;5043840;28;20393;-74
2023/05/21 02:48:30;;;;;;;20.65;14.40;;;;;;;18.02;67.19;99907.06;5046755;28;20450;-74
2023/05/21 02:50:56;;;;;;;19.60;13.37;;;;;;;18.00;67.17;99901.91;5048973;28;20446;-74
2023/05/21 02:53:21;;;;;;;19.30;14.90;;;;;;;18.01;67.30;99899.97;5047635;28;20396;-75
2023/05/21 02:55:46;;;;;;;17.27;13.45;;;;;;;17.98;67.43;99900.59;5043891;28;20409;-74
2023/05/21 02:58:13;;;;;;;21.67;14.37;;;;;;;17.94;67.44;99900.38;5046374;28;20415;-74
2023/05/21 03:00:39;;;;;;;20.98;14.57;;;;;;;17.93;67.53;99903.41;5047667;28;20401;-74
2023/05/21 03:03:04;;;;;;;18.43;14.23;;;;;;;17.94;67.58;99894.91;5042685;28;20524;-74
2023/05/21 03:05:29;;;;;;;17.87;14.47;;;;;;;17.92;67.60;99902.59;5047483;28;20416;-74
2023/05/21 03:07:55;;;;;;;18.05;13.13;;;;;;;17.92;67.45;99908.09;5045227;28;20459;-74
2023/05/21 03:10:20;;;;;;;18.73;13.27;;;;;;;17.88;67.72;99901.59;5048779;28;20390;-74
2023/05/21 03:12:46;;;;;;;18.83;13.30;;;;;;;17.86;67.72;99901.09;5048670;28;20389;-74
2023/05/21 03:15:13;;;;;;;20.13;14.25;;;;;;;17.85;67.79;99904.94;5023730;28;20918;-74
2023/05/21 03:17:38;;;;;;;18.80;14.25;;;;;;;17.82;67.92;99899.25;5042968;28;20451;-75
2023/05/21 03:20:04;;;;;;;21.05;14.15;;;;;;;17.77;67.96;99900.19;5036356;28;20421;-75
2023/05/21 03:22:30;;;;;;;17.80;14.90;;;;;;;17.77;68.13;99899.38;5048412;28;20389;-74
2023/05/21 03:24:57;;;;;;;19.57;13.63;;;;;;;17.74;68.17;99900.00;5029685;28;20416;-74
2023/05/21 03:27:22;;;;;;;21.90;14.40;;;;;;;17.72;68.29;99894.81;5029854;28;20422;-74
2023/05/21 03:29:47;;;;;;;22.50;13.63;;;;;;;17.72;68.47;99897.53;5045362;28;20391;-74
2023/05/21 03:32:12;;;;;;;21.47;14.50;;;;;;;17.71;68.29;99893.19;5048193;28;20884;-74
2023/05/21 03:34:38;;;;;;;20.60;14.33;;;;;;;17.70;68.48;99901.72;5034156;28;20431;-74
2023/05/21 03:37:03;;;;;;;21.73;14.23;;;;;;;17.69;68.31;99897.34;5029029;28;20403;-74
2023/05/21 03:39:28;;;;;;;17.27;13.67;;;;;;;17.65;68.56;99902.63;5034986;28;20447;-74
2023/05/21 03:41:53;;;;;;;19.47;14.67;;;;;;;17.62;68.56;99898.56;5042735;28;20417;-74
2023/05/21 03:44:19;;;;;;;20.50;14.70;;;;;;;17.61;68.53;99902.44;5033076;28;20869;-74
2023/05/21 03:46:44;;;;;;;22.45;14.80;;;;;;;17.57;68.58;99900.59;5048016;28;20477;-74
2023/05/21 03:49:10;;;;;;;20.00;13.90;;;;;;;17.56;68.73;99908.00;5038010;28;20419;-74
2023/05/21 03:51:37;;;;;;;20.63;14.47;;;;;;;17.54;68.75;99910.22;5036278;28;20412;-74
2023/05/21 03:54:02;;;;;;;18.92;14.43;;;;;;;17.56;68.75;99915.41;5032884;28;20403;-74
2023/05/21 03:56:27;;;;;;;20.77;13.55;;;;;;;17.54;68.75;99921.19;5038125;28;20889;-74
2023/05/21 03:58:53;;;;;;;20.13;14.03;;;;;;;17.54;68.93;99921.19;5040805;28;20896;-74
2023/05/21 04:01:18;;;;;;;18.50;14.30;;;;;;;17.53;68.85;99925.03;5031050;28;20422;-74
2023/05/21 04:03:44;;;;;;;20.50;14.50;;;;;;;17.52;68.91;99926.13;5025955;28;20407;-74
2023/05/21 04:06:09;;;;;;;19.03;13.80;;;;;;;17.50;68.95;99925.63;5031573;28;20909;-74
2023/05/21 04:08:35;;;;;;;19.27;14.00;;;;;;;17.49;69.05;99926.75;5030359;28;20453;-74
2023/05/21 04:11:01;;;;;;;18.73;14.20;;;;;;;17.48;69.05;99924.31;5031100;28;20395;-74
2023/05/21 04:13:27;;;;;;;19.42;14.80;;;;;;;17.47;69.04;99928.97;5032280;28;20407;-74
2023/05/21 04:15:53;;;;;;;19.77;14.13;;;;;;;17.43;69.18;99925.22;5030712;28;20399;-74
2023/05/21 04:18:19;;;;;;;23.98;14.30;;;;;;;17.40;69.32;99931.31;5030511;28;20415;-74
2023/05/21 04:20:44;;;;;;;21.35;14.30;;;;;;;17.41;69.34;99932.13;5032622;28;20444;-74
2023/05/21 04:23:10;;;;;;;20.13;14.10;;;;;;;17.42;69.39;99934.53;5034307;28;20405;-75
2023/05/21 04:25:37;;;;;;;18.40;14.33;;;;;;;17.44;69.36;99935.06;5034433;28;20399;-74
2023/05/21 04:28:03;;;;;;;22.15;14.77;;;;;;;17.46;69.42;99932.81;5031118;28;20465;-75
2023/05/21 04:30:29;;;;;;;22.25;15.18;;;;;;;17.44;69.56;99943.28;5029156;28;20411;-74
2023/05/21 04:32:54;;;;;;;20.90;14.07;;;;;;;17.44;69.63;99940.56;5035270;28;20433;-75
2023/05/21 04:35:19;;;;;;;17.77;14.17;;;;;;;17.47;69.63;99933.66;5039288;28;20471;-75
2023/05/21 04:37:45;;;;;;;20.57;15.03;;;;;;;17.48;69.56;99933.34;5032125;28;20419;-74
2023/05/21 04:40:17;;;;;;;20.48;15.10;;;;;;;17.52;69.70;99937.09;5032540;28;20468;-74
2023/05/21 04:42:44;;;;;;;18.57;14.40;;;;;;;17.55;69.61;99941.19;5031204;28;20407;-75
2023/05/21 04:45:10;;;;;;;20.52;15.43;;;;;;;17.48;69.85;99936.09;5031840;28;20461;-74
2023/05/21 04:47:36;;;;;;;20.85;14.70;;;;;;;17.49;69.82;99945.91;5031195;28;20407;-74
2023/05/21 04:50:03;;;;;;;19.92;14.45;;;;;;;17.53;69.72;99949.69;5030568;28;20645;-75
2023/05/21 04:52:28;;;;;;;17.97;14.47;;;;;;;17.60;69.54;99943.84;5033016;28;20437;-74
2023/05/21 04:54:53;;;;;;;23.38;14.60;;;;;;;17.65;69.32;99946.47;5024282;28;20956;-74
2023/05/21 04:57:18;;;;;;;20.33;14.80;;;;;;;17.68;69.21;99943.13;5038079;28;20394;-74
2023/05/21 04:59:44;;;;;;;22.47;15.20;;;;;;;17.69;69.34;99952.97;5024379;28;20432;-75
2023/05/21 05:02:09;;;;;;;20.20;15.23;;;;;;;17.73;69.15;99955.91;5020477;28;20438;-75
2023/05/21 05:04:35;;;;;;;22.42;15.70;;;;;;;17.76;69.06;99947.09;5011741;28;20910;-75
2023/05/21 05:07:00;;;;;;;21.23;14.13;;;;;;;17.79;69.15;99952.78;5027012;28;20502;-74
2023/05/21 05:09:25;;;;;;;21.30;14.65;;;;;;;17.79;69.06;99960.19;5022176;28;20430;-75
2023/05/21 05:11:51;;;;;;;23.03;15.00;;;;;;;17.81;69.16;99958.78;5018833;28;20411;-74
2023/05/21 05:14:16;;;;;;;18.00;14.20;;;;;;;17.86;68.98;99957.84;5022327;28;20412;-75
2023/05/21 05:16:41;;;;;;;18.30;13.87;;;;;;;17.88;68.90;99952.88;5023919;28;20443;-74
2023/05/21 05:19:07;;;;;;;19.10;14.50;;;;;;;17.85;68.98;99948.03;5031821;28;20416;-74
2023/05/21 05:21:32;;;;;;;22.83;15.63;;;;;;;17.86;69.09;99955.09;5033890;28;20453;-74
2023/05/21 05:23:57;;;;;;;22.80;14.43;;;;;;;17.93;68.89;99950.84;5026399;28;20428;-74
2023/05/21 05:26:22;;;;;;;19.08;14.32;;;;;;;17.99;68.88;99948.81;5028588;28;20459;-75
2023/05/21 05:28:48;;;;;;;18.73;13.73;;;;;;;18.05;68.79;99953.88;5042926;28;20758;-74
2023/05/21 05:31:13;;;;;;;20.90;14.13;;;;;;;18.10;68.59;99956.53;5023264;28;20536;-74
2023/05/21 05:33:39;;;;;;;23.10;14.77;;;;;;;18.18;68.50;99954.97;5025196;28;20809;-74
2023/05/21 05:36:05;;;;;;;18.50;13.90;;;;;;;18.22;68.42;99949.69;5030006;28;20403;-74
2023/05/21 05:38:30;;;;;;;20.70;14.40;;;;;;;18.25;68.34;99949.88;5030948;28;20469;-74
2023/05/21 05:40:55;;;;;;;19.80;14.67;;;;;;;18.26;68.45;99940.53;5032366;28;20856;-74
2023/05/21 05:43:21;;;;;;;19.33;13.90;;;;;;;18.25;68.57;99944.41;5037403;28;20411;-75
2023/05/21 05:45:46;;;;;;;21.23;13.87;;;;;;;18.27;68.46;99939.44;5038198;28;20439;-75
2023/05/21 05:48:11;;;;;;;21.23;14.20;;;;;;;18.31;68.40;99939.63;5040168;28;20401;-74
2023/05/21 05:50:37;;;;;;;25.60;14.43;;;;;;;18.37;68.34;99944.69;5046003;28;20413;-75
2023/05/21 05:53:02;;;;;;;18.70;13.80;;;;;;;18.36;68.36;99942.25;5021332;28;20508;-74
2023/05/21 05:55:27;;;;;;;18.73;13.90;;;;;;;18.35;68.39;99944.19;5037854;28;20482;-74
2023/05/21 05:57:53;;;;;;;20.40;13.87;;;;;;;18.40;68.09;99937.78;5021308;28;20413;-74
2023/05/21 06:00:18;;;;;;;20.57;15.40;;;;;;;18.46;68.00;99947.50;5024766;28;20409;-74
2023/05/21 06:02:44;;;;;;;20.63;14.07;;;;;;;18.50;67.87;99943.06;5040217;28;20887;-74
2023/05/21 06:05:09;;;;;;;19.73;13.80;;;;;;;18.51;67.73;99940.00;5038966;28;20387;-74
2023/05/21 06:07:38;;;;;;;19.73;13.53;;;;;;;18.59;67.68;99943.94;5027371;28;20921;-74
2023/05/21 06:10:07;;;;;;;21.77;14.97;;;;;;;18.62;67.46;99938.66;5037319;28;20393;-74
2023/05/21 06:12:32;;;;;;;22.30;14.43;;;;;;;18.64;67.57;99933.66;5040143;28;20928;-75
2023/05/21 06:14:58;;;;;;;19.50;14.57;;;;;;;18.65;67.54;99938.03;5038073;28;20482;-75
2023/05/21 06:17:23;;;;;;;24.98;15.05;;;;;;;18.67;67.56;99945.97;5025021;28;20409;-74
2023/05/21 06:19:48;;;;;;;19.47;14.80;;;;;;;18.67;67.52;99938.50;5039485;28;20415;-74
2023/05/21 06:22:14;;;;;;;21.70;15.13;;;;;;;18.69;67.62;99938.22;5041233;28;20412;-74
2023/05/21 06:24:39;;;;;;;18.00;13.93;;;;;;;18.72;67.62;99945.00;5032575;28;20422;-73
2023/05/21 06:27:05;;;;;;;21.93;14.83;;;;;;;18.76;67.31;99946.84;5033474;28;20769;-74
2023/05/21 06:29:30;;;;;;;23.53;14.70;;;;;;;18.77;67.20;99947.66;5039443;28;20905;-74
2023/05/21 06:31:55;;;;;;;23.48;14.10;;;;;;;18.80;67.18;99949.75;5028291;28;20403;-74
2023/05/21 06:34:21;;;;;;;20.20;14.27;;;;;;;18.83;66.95;99952.69;5022362;28;21047;-74
2023/05/21 06:36:47;;;;;;;18.70;14.03;;;;;;;18.89;66.84;99951.44;5027446;28;20894;-73
2023/05/21 06:39:12;;;;;;;19.13;14.45;;;;;;;18.94;66.72;99956.81;5037215;28;20425;-73
2023/05/21 06:41:38;;;;;;;17.00;13.13;;;;;;;18.99;66.70;99947.63;5039242;28;20410;-73
2023/05/21 06:44:04;;;;;;;21.43;14.30;;;;;;;19.02;66.58;99950.56;5038028;28;20413;-73
2023/05/21 06:46:29;;;;;;;20.75;13.48;;;;;;;19.05;66.44;99947.19;5032569;28;20421;-74
2023/05/21 06:48:54;;;;;;;19.90;13.25;;;;;;;19.09;66.63;99945.47;5030535;28;20415;-74
2023/05/21 06:51:20;;;;;;;18.50;13.10;;;;;;;19.11;66.40;99954.19;5025491;28;20416;-74
2023/05/21 06:53:45;;;;;;;17.10;13.20;;;;;;;19.13;66.52;99945.63;5029457;28;20818;-74
2023/05/21 06:56:11;;;;;;;19.63;13.03;;;;;;;19.20;66.21;99947.94;5027933;28;20415;-74
2023/05/21 06:58:37;;;;;;;19.25;13.20;;;;;;;19.23;66.13;99945.38;5036644;28;20423;-74
2023/05/21 07:01:02;;;;;;;18.40;13.50;;;;;;;19.28;66.14;99942.50;5031307;28;20419;-74
2023/05/21 07:03:27;;;;;;;17.00;13.10;;;;;;;19.25;66.28;99937.63;5022435;28;20442;-74
2023/05/21 07:05:56;;;;;;;18.67;13.03;;;;;;;19.30;65.97;99936.69;5029184;28;20411;-74
2023/05/21 07:08:21;;;;;;;16.80;12.25;;;;;;;19.38;65.96;99939.47;5027984;28;20409;-74
2023/05/21 07:10:47;;;;;;;19.47;13.60;;;;;;;19.43;65.68;99946.81;5029363;28;20764;-74
2023/05/21 07:13:13;;;;;;;15.77;12.43;;;;;;;19.46;65.78;99943.44;5060029;28;20773;-74
2023/05/21 07:15:38;;;;;;;19.85;12.80;;;;;;;19.49;65.60;99942.81;5024590;28;20410;-74
2023/05/21 07:18:06;;;;;;;18.30;12.63;;;;;;;19.56;65.23;99932.16;5024298;28;20899;-74
2023/05/21 07:20:31;;;;;;;15.23;12.30;;;;;;;19.61;65.34;99948.50;5025590;28;20419;-74
2023/05/21 07:22:56;;;;;;;16.23;12.80;;;;;;;19.61;65.20;99943.81;5036984;28;20405;-74
2023/05/21 07:25:22;;;;;;;18.50;12.27;;;;;;;19.65;65.31;99944.00;5029141;28;20957;-74
2023/05/21 07:27:47;;;;;;;16.97;12.13;;;;;;;19.69;65.15;99939.50;5031430;28;20917;-74
2023/05/21 07:30:15;;;;;;;15.03;11.70;;;;;;;19.73;64.92;99937.72;5031824;28;20416;-74
2023/05/21 07:32:40;;;;;;;17.20;12.23;;;;;;;19.80;64.86;99935.31;5032889;28;20452;-75
2023/05/21 07:35:06;;;;;;;17.23;12.33;;;;;;;19.89;64.65;99936.16;5029349;28;20936;-74
2023/05/21 07:37:31;;;;;;;14.67;11.93;;;;;;;19.98;64.48;99930.69;5034788;28;20407;-74
2023/05/21 07:39:59;;;;;;;16.77;10.90;;;;;;;20.01;64.46;99930.84;5029114;28;20415;-74
2023/05/21 07:42:25;;;;;;;16.17;11.80;;;;;;;20.03;64.22;99925.84;5036223;28;20403;-74
2023/05/21 07:44:51;;;;;;;15.50;11.40;;;;;;;20.12;64.16;99926.66;5035530;28;20480;-74
2023/05/21 07:47:16;;;;;;;16.37;11.07;;;;;;;20.19;63.66;99929.75;5011308;28;20442;-74
2023/05/21 07:49:41;;;;;;;12.98;11.10;;;;;;;20.31;63.51;99933.84;5009407;28;20431;-74
2023/05/21 07:52:07;;;;;;;15.60;10.53;;;;;;;20.31;63.20;99936.59;5004845;28;20897;-74
2023/05/21 07:54:32;;;;;;;14.33;11.40;;;;;;;20.40;63.08;99931.91;5009989;28;21033;-74
2023/05/21 07:56:57;;;;;;;17.20;10.70;;;;;;;20.46;62.97;99931.44;5012594;28;20510;-74
2023/05/21 07:59:25;;;;;;;15.40;10.80;;;;;;;20.54;62.66;99935.34;5011284;28;20427;-74
2023/05/21 08:01:51;;;;;;;13.38;11.35;;;;;;;20.62;62.44;99938.06;5011508;28;20484;-74
2023/05/21 08:04:16;;;;;;;12.07;10.87;;;;;;;20.76;62.06;99932.41;5010429;28;20489;-74
2023/05/21 08:06:41;;;;;;;15.27;11.33;;;;;;;20.84;61.88;99925.28;5012651;28;20446;-74
2023/05/21 08:09:11;;;;;;;15.57;12.27;;;;;;;20.84;62.02;99931.59;5011538;28;20434;-74
2023/05/21 08:11:36;;;;;;;13.20;10.53;;;;;;;20.99;61.55;99924.75;5011434;28;20411;-74
2023/05/21 08:14:01;;;;;;;14.93;10.52;;;;;;;21.08;61.08;99920.84;5006884;28;21021;-74
2023/05/21 08:16:27;;;;;;;14.87;10.63;;;;;;;21.08;61.09;99918.09;5012062;28;20498;-74
2023/05/21 08:18:52;;;;;;;15.73;10.77;;;;;;;21.09;61.27;99921.66;5020409;28;20511;-74
2023/05/21 08:21:17;;;;;;;13.67;11.03;;;;;;;21.11;61.12;99927.69;5027066;28;20413;-74
2023/05/21 08:23:43;;;;;;;18.45;11.18;;;;;;;21.15;60.94;99929.47;5038722;28;20395;-74
2023/05/21 08:26:08;;;;;;;13.87;11.73;;;;;;;21.15;60.92;99929.47;5021303;28;20409;-74
2023/05/21 08:28:37;;;;;;;13.60;10.80;;;;;;;21.31;60.32;99917.91;5034630;28;20395;-74
2023/05/21 08:31:02;;;;;;;15.88;10.30;;;;;;;21.36;59.90;99921.31;5029054;28;20410;-74
2023/05/21 08:33:27;;;;;;;14.90;10.87;;;;;;;21.39;59.63;99919.84;5033333;28;20403;-74
2023/05/21 08:35:53;;;;;;;12.67;9.83;;;;;;;21.43;59.39;99916.09;5030321;28;20461;-74
2023/05/21 08:38:18;;;;;;;17.95;10.75;;;;;;;21.47;59.09;99924.53;5035755;28;20421;-73
2023/05/21 08:40:46;;;;;;;13.70;10.70;;;;;;;21.48;59.01;99918.66;5039886;28;20403;-71
2023/05/21 08:43:13;;;;;;;12.95;9.98;;;;;;;21.50;58.96;99923.88;5024074;28;20407;-73
2023/05/21 08:45:41;;;;;;;16.30;10.77;;;;;;;21.51;58.82;99917.19;5038377;28;20405;-74
2023/05/21 08:48:08;;;;;;;13.35;10.43;;;;;;;21.59;58.77;99925.44;5028139;28;20394;-74
2023/05/21 08:50:33;;;;;;;13.07;11.38;;;;;;;21.64;58.43;99925.25;5036836;28;20411;-74
2023/05/21 08:53:02;;;;;;;12.47;10.00;;;;;;;21.79;58.14;99920.31;5040374;28;20391;-74
2023/05/21 08:55:27;;;;;;;11.18;9.77;;;;;;;21.86;57.98;99923.38;5042633;28;20473;-74
2023/05/21 08:57:53;;;;;;;11.97;10.33;;;;;;;21.98;57.67;99924.31;5039056;28;20881;-74
2023/05/21 09:00:23;;;;;;;14.55;10.48;;;;;;;22.22;57.29;99926.44;5039613;28;20391;-74
2023/05/21 09:02:49;;;;;;;10.55;9.45;;;;;;;22.49;56.55;99930.63;5040363;28;20399;-74
2023/05/21 09:05:15;;;;;;;11.95;9.45;;;;;;;22.79;55.52;99928.63;5043711;28;20436;-74
2023/05/21 09:07:56;;;;;;;12.27;9.90;;;;;;;22.94;55.17;99926.03;5040494;28;20391;-74
2023/05/21 09:10:25;;;;;;;10.57;9.57;;;;;;;23.08;54.99;99931.28;5040067;28;20426;-74
2023/05/21 09:12:51;;;;;;;12.40;10.23;;;;;;;23.34;54.75;99931.00;5041980;28;20395;-74
2023/05/21 09:15:16;;;;;;;13.47;9.03;;;;;;;23.53;54.06;99934.88;5039799;28;20425;-74
2023/05/21 09:17:45;;;;;;;10.77;9.33;;;;;;;23.71;53.89;99930.72;5039635;28;20402;-74
2023/05/21 09:20:13;;;;;;;10.30;9.25;;;;;;;23.83;53.19;99931.88;5034822;28;20466;-74
2023/05/21 09:22:40;;;;;;;14.33;9.67;;;;;;;23.94;53.18;99921.97;5039321;28;20395;-74
2023/05/21 09:25:07;;;;;;;13.40;8.63;;;;;;;23.98;51.95;99931.19;5041249;28;20400;-74
2023/05/21 09:27:33;;;;;;;9.90;8.25;;;;;;;23.94;51.82;99925.53;5038162;28;20403;-74
2023/05/21 09:29:58;;;;;;;13.70;8.70;;;;;;;23.94;52.30;99930.28;5039483;28;20989;-74
2023/05/21 09:32:23;;;;;;;10.67;9.03;;;;;;;23.90;51.77;99930.16;5040315;28;20392;-74
2023/05/21 09:34:49;;;;;;;8.97;8.03;;;;;;;23.75;51.29;99933.59;5041783;28;20397;-74
2023/05/21 09:37:15;;;;;;;10.00;8.30;;;;;;;23.80;51.38;99936.16;5039307;28;20473;-74
2023/05/21 09:39:41;;;;;;;11.60;8.75;;;;;;;23.80;50.86;99927.84;5039171;28;20418;-74
2023/05/21 09:42:09;;;;;;;8.98;8.02;;;;;;;23.72;50.80;99934.28;5038935;28;20449;-74
2023/05/21 09:44:34;;;;;;;11.00;8.35;;;;;;;23.72;51.08;99932.34;5042904;28;20382;-74
2023/05/21 09:47:00;;;;;;;8.67;7.77;;;;;;;23.73;50.89;99927.63;5040017;28;20453;-74
2023/05/21 09:49:26;;;;;;;9.68;7.88;;;;;;;23.69;50.93;99930.25;5038420;28;20449;-74
2023/05/21 09:51:55;;;;;;;9.55;7.97;;;;;;;23.62;50.85;99924.50;5038221;28;20391;-74
2023/05/21 09:54:24;;;;;;;9.27;8.38;;;;;;;23.71;50.89;99933.47;5032717;28;20419;-74
2023/05/21 09:56:52;;;;;;;9.10;8.20;;;;;;;23.83;51.27;99927.16;5038642;28;20893;-74
2023/05/21 09:59:17;;;;;;;9.50;7.97;;;;;;;23.84;51.20;99930.75;5038787;28;20419;-73
2023/05/21 10:01:42;;;;;;;9.27;8.33;;;;;;;23.92;51.04;99930.63;5038832;28;20433;-74
2023/05/21 10:04:08;;;;;;;9.30;8.40;;;;;;;23.91;51.15;99931.75;5042177;28;20424;-74
2023/05/21 10:06:41;;;;;;;8.98;8.18;;;;;;;23.87;50.71;99930.84;5036353;28;20399;-74
2023/05/21 10:09:13;;;;;;;9.20;7.78;;;;;;;23.98;51.14;99922.88;5038969;28;20739;-74
2023/05/21 10:11:43;;;;;;;9.10;8.20;;;;;;;24.08;51.20;99923.22;5039301;28;20383;-74
2023/05/21 10:14:18;;;;;;;8.85;8.05;;;;;;;24.20;50.61;99916.91;5042372;28;20377;-74
2023/05/21 10:16:46;;;;;;;11.65;8.25;;;;;;;24.25;50.63;99920.22;5026065;28;20441;-75
2023/05/21 10:19:13;;;;;;;9.43;8.27;;;;;;;24.31;50.55;99918.03;5038314;28;20501;-74
2023/05/21 10:21:39;;;;;;;9.45;8.40;;;;;;;24.37;50.50;99921.38;5040290;28;20383;-74
2023/05/21 10:24:06;;;;;;;9.80;8.18;;;;;;;24.61;50.45;99916.56;5041596;28;20385;-74
2023/05/21 10:26:34;;;;;;;10.43;8.18;;;;;;;24.94;49.70;99910.00;5036689;28;20402;-74
2023/05/21 10:29:01;;;;;;;10.23;8.23;;;;;;;24.92;49.44;99904.00;5037255;28;20407;-74
2023/05/21 10:31:27;;;;;;;8.77;7.88;;;;;;;24.90;49.26;99918.22;5038618;28;20395;-74
2023/05/21 10:33:53;;;;;;;10.87;8.30;;;;;;;24.77;49.53;99911.88;5042027;28;20761;-74
2023/05/21 10:36:20;;;;;;;9.88;8.15;;;;;;;24.70;49.51;99905.31;5038374;28;20483;-74
2023/05/21 10:38:46;;;;;;;16.38;8.30;;;;;;;24.82;49.73;99910.03;5032542;28;20755;-74
2023/05/21 10:41:14;;;;;;;10.63;8.60;;;;;;;25.10;49.56;99905.28;5034660;28;20530;-74
2023/05/21 10:43:47;;;;;;;10.38;8.57;;;;;;;25.36;48.74;99905.59;5030667;28;20546;-74
2023/05/21 10:46:26;;;;;;;9.32;7.90;;;;;;;25.57;48.65;99914.50;5025338;28;20407;-74
2023/05/21 10:49:13;;;;;;;10.18;9.07;;;;;;;25.61;48.06;99895.19;5033520;28;20420;-74
2023/05/21 10:52:00;;;;;;;14.10;8.45;;;;;;;25.74;48.03;99903.03;5021859;28;20413;-74
2023/05/21 10:54:51;;;;;;;11.30;8.52;;;;;;;26.03;47.56;99901.75;5030021;28;20431;-74
2023/05/21 10:57:58;;;;;;;9.50;8.70;;;;;;;26.32;47.26;99903.22;5016987;28;20426;-74
2023/05/21 11:00:25;;;;;;;51.15;46.90;;;;;;;26.56;46.30;99908.53;5031073;28;20414;-74
2023/05/21 11:02:51;;;;;;;388.55;274.27;;;;;;;26.89;45.39;99899.69;5028075;28;20891;-74
2023/05/21 11:05:38;;;;;;;1999.90;999.90;;;;;;;27.31;44.52;99903.28;5029896;28;20417;-74
2023/05/21 11:08:04;;;;;;;1999.90;783.33;;;;;;;27.55;44.04;99906.91;5030974;28;20414;-74
2023/05/21 11:10:35;;;;;;;1999.90;919.00;;;;;;;27.54;44.07;99903.31;5035971;28;20395;-74
2023/05/21 11:13:10;;;;;;;1999.90;999.90;;;;;;;27.32;44.17;99904.09;5046509;28;20439;-75
2023/05/21 11:15:58;;;;;;;1999.90;844.50;;;;;;;27.04;44.83;99903.53;5030430;28;20455;-74
2023/05/21 11:18:46;;;;;;;1999.90;804.72;;;;;;;26.74;45.38;99903.34;5032581;28;20411;-74